Time;durP1;ratioP1;P1;durP2;ratioP2;P2;SDS_P1;SDS_P2;PMS_P1;PMS_P2;Temp;Humidity;BMP_temperature;BMP_pressure;BME280_temperature;BME280_humidity;BME280_pressure;Samples;Min_cycle;Max_cycle;Signal;HPM_P1;HPM_P2
2023/04/27 00:00:22;;;;;;;1.30;1.20;;;;;;;;;;5037251;28;20303;-63
2023/04/27 00:02:50;;;;;;;1.80;1.33;;;;;;;;;;5037668;28;20214;-63
2023/04/27 00:05:17;;;;;;;1.60;1.50;;;;;;;;;;5037521;28;20217;-63
2023/04/27 00:07:47;;;;;;;1.45;1.35;;;;;;;;;;5037682;28;20206;-63
2023/04/27 00:10:15;;;;;;;1.63;1.52;;;;;;;;;;5037382;28;20212;-63
2023/04/27 00:12:43;;;;;;;1.50;1.40;;;;;;;;;;5037091;28;20554;-63
2023/04/27 00:15:11;;;;;;;1.70;1.60;;;;;;;;;;5037746;28;20205;-63
2023/04/27 00:17:39;;;;;;;1.60;1.50;;;;;;;;;;5037173;28;20205;-63
2023/04/27 00:20:10;;;;;;;1.42;1.33;;;;;;;;;;5037447;28;20592;-63
2023/04/27 00:22:38;;;;;;;1.38;1.27;;;;;;;;;;5037145;28;20300;-63
2023/04/27 00:25:08;;;;;;;1.70;1.40;;;;;;;;;;5037292;28;20300;-63
2023/04/27 00:27:36;;;;;;;1.50;1.40;;;;;;;;;;5037125;28;20279;-63
2023/04/27 00:30:03;;;;;;;1.63;1.45;;;;;;;;;;5037338;28;20264;-63
2023/04/27 00:32:31;;;;;;;1.27;1.17;;;;;;;;;;5037074;28;20216;-63
2023/04/27 00:34:59;;;;;;;1.48;1.30;;;;;;;;;;5037011;28;20252;-63
2023/04/27 00:37:27;;;;;;;1.42;1.33;;;;;;;;;;5037129;28;20213;-63
2023/04/27 00:39:54;;;;;;;1.35;1.25;;;;;;;;;;5037010;28;20205;-63
2023/04/27 00:42:24;;;;;;;1.38;1.23;;;;;;;;;;5037305;28;20455;-63
2023/04/27 00:44:51;;;;;;;1.33;1.20;;;;;;;;;;5037191;28;20206;-63
2023/04/27 00:47:19;;;;;;;1.60;1.45;;;;;;;;;;5037224;28;20212;-63
2023/04/27 00:49:47;;;;;;;1.45;1.33;;;;;;;;;;5038075;28;20206;-63
2023/04/27 00:52:15;;;;;;;1.25;1.15;;;;;;;;;;5041097;28;20205;-63
2023/04/27 00:54:43;;;;;;;1.40;1.30;;;;;;;;;;5041081;28;20224;-63
2023/04/27 00:57:10;;;;;;;1.50;1.40;;;;;;;;;;5040878;28;20508;-62
2023/04/27 00:59:40;;;;;;;1.30;1.20;;;;;;;;;;5040849;28;20288;-62
2023/04/27 01:02:15;;;;;;;1.55;1.45;;;;;;;;;;5040680;28;20241;-62
2023/04/27 01:04:43;;;;;;;1.30;1.20;;;;;;;;;;5040873;28;20303;-62
2023/04/27 01:07:11;;;;;;;1.33;1.23;;;;;;;;;;5040826;28;20209;-62
2023/04/27 01:09:38;;;;;;;1.50;1.40;;;;;;;;;;5040878;28;20640;-62
2023/04/27 01:12:07;;;;;;;1.60;1.48;;;;;;;;;;5040950;28;20202;-62
2023/04/27 01:14:34;;;;;;;1.50;1.40;;;;;;;;;;5040767;28;20212;-62
2023/04/27 01:17:04;;;;;;;1.33;1.23;;;;;;;;;;5040712;28;20698;-62
2023/04/27 01:19:33;;;;;;;1.30;1.20;;;;;;;;;;5040529;28;20206;-62
2023/04/27 01:22:01;;;;;;;1.20;1.10;;;;;;;;;;5040219;28;20295;-62
2023/04/27 01:24:30;;;;;;;3.17;1.40;;;;;;;;;;5040675;28;20585;-62
2023/04/27 01:26:58;;;;;;;2.00;1.48;;;;;;;;;;5040403;28;20252;-62
2023/04/27 01:29:26;;;;;;;1.63;1.30;;;;;;;;;;5040489;28;20214;-62
2023/04/27 01:31:54;;;;;;;1.30;1.20;;;;;;;;;;5040464;28;20201;-62
2023/04/27 01:34:22;;;;;;;1.50;1.40;;;;;;;;;;5040275;28;20212;-62
2023/04/27 01:36:50;;;;;;;1.40;1.30;;;;;;;;;;5040248;28;20488;-62
2023/04/27 01:39:18;;;;;;;1.40;1.30;;;;;;;;;;5040530;28;20249;-62
2023/04/27 01:41:47;;;;;;;1.40;1.30;;;;;;;;;;5040210;28;20237;-62
2023/04/27 01:44:15;;;;;;;1.40;1.30;;;;;;;;;;5040235;28;20595;-62
2023/04/27 01:46:43;;;;;;;1.35;1.25;;;;;;;;;;5040261;28;20491;-62
2023/04/27 01:49:10;;;;;;;1.30;1.20;;;;;;;;;;5040366;28;20255;-62
2023/04/27 01:51:38;;;;;;;1.38;1.27;;;;;;;;;;5040275;28;20535;-62
2023/04/27 01:54:06;;;;;;;1.20;1.10;;;;;;;;;;5039747;28;20590;-62
2023/04/27 01:56:34;;;;;;;1.30;1.20;;;;;;;;;;5040093;28;20214;-62
2023/04/27 01:59:03;;;;;;;1.50;1.40;;;;;;;;;;5039897;28;20249;-62
2023/04/27 02:01:31;;;;;;;1.58;1.45;;;;;;;;;;5038679;28;20229;-62
2023/04/27 02:03:59;;;;;;;1.38;1.27;;;;;;;;;;5039979;28;20236;-62
2023/04/27 02:06:27;;;;;;;1.35;1.25;;;;;;;;;;5039585;28;20205;-62
2023/04/27 02:08:55;;;;;;;1.40;1.30;;;;;;;;;;5039644;28;20210;-62
2023/04/27 02:11:22;;;;;;;1.50;1.40;;;;;;;;;;5039941;28;20201;-62
2023/04/27 02:13:50;;;;;;;1.40;1.30;;;;;;;;;;5039747;28;20642;-62
2023/04/27 02:16:19;;;;;;;1.48;1.30;;;;;;;;;;5039438;28;20677;-62
2023/04/27 02:18:47;;;;;;;1.42;1.33;;;;;;;;;;5039618;28;20260;-62
2023/04/27 02:21:15;;;;;;;1.35;1.25;;;;;;;;;;5039744;28;20253;-62
2023/04/27 02:23:43;;;;;;;1.42;1.33;;;;;;;;;;5039293;28;20214;-62
2023/04/27 02:26:17;;;;;;;2.30;1.42;;;;;;;;;;5039255;28;20205;-62
2023/04/27 02:28:45;;;;;;;1.40;1.30;;;;;;;;;;5039175;28;20209;-62
2023/04/27 02:31:12;;;;;;;1.85;1.58;;;;;;;;;;5039158;28;20210;-62
2023/04/27 02:33:42;;;;;;;1.48;1.30;;;;;;;;;;5039032;28;20304;-62
2023/04/27 02:36:10;;;;;;;1.33;1.23;;;;;;;;;;5039127;28;20603;-62
2023/04/27 02:38:37;;;;;;;1.33;1.23;;;;;;;;;;5039137;28;20229;-62
2023/04/27 02:41:05;;;;;;;1.50;1.40;;;;;;;;;;5039183;28;20325;-62
2023/04/27 02:43:33;;;;;;;1.42;1.33;;;;;;;;;;5038840;28;20304;-62
2023/04/27 02:46:03;;;;;;;1.42;1.33;;;;;;;;;;5039227;28;20486;-62
2023/04/27 02:48:31;;;;;;;1.38;1.27;;;;;;;;;;5039064;28;20281;-62
2023/04/27 02:51:04;;;;;;;1.27;1.20;;;;;;;;;;5038255;28;20267;-62
2023/04/27 02:53:31;;;;;;;1.40;1.30;;;;;;;;;;5038725;28;20569;-62
2023/04/27 02:55:59;;;;;;;1.30;1.20;;;;;;;;;;5037738;28;20249;-62
2023/04/27 02:58:27;;;;;;;1.25;1.20;;;;;;;;;;5038664;28;20657;-62
2023/04/27 03:00:55;;;;;;;1.40;1.30;;;;;;;;;;5038444;28;20277;-62
2023/04/27 03:03:23;;;;;;;1.30;1.20;;;;;;;;;;5038794;28;20337;-62
2023/04/27 03:05:51;;;;;;;1.20;1.10;;;;;;;;;;5038405;28;20566;-64
2023/04/27 03:08:20;;;;;;;1.30;1.20;;;;;;;;;;5037970;28;20300;-63
2023/04/27 03:10:48;;;;;;;1.33;1.23;;;;;;;;;;5038454;28;20210;-62
2023/04/27 03:13:16;;;;;;;1.30;1.20;;;;;;;;;;5038633;28;20205;-62
2023/04/27 03:15:43;;;;;;;1.20;1.10;;;;;;;;;;5038049;28;20236;-62
2023/04/27 03:18:11;;;;;;;1.20;1.10;;;;;;;;;;5038179;28;20217;-62
2023/04/27 03:20:39;;;;;;;1.27;1.10;;;;;;;;;;5038437;28;20217;-62
2023/04/27 03:23:07;;;;;;;1.33;1.23;;;;;;;;;;5038286;28;20226;-62
2023/04/27 03:25:37;;;;;;;1.40;1.30;;;;;;;;;;5038009;28;20231;-62
2023/04/27 03:28:05;;;;;;;2.05;1.30;;;;;;;;;;5038134;28;20288;-62
2023/04/27 03:30:33;;;;;;;1.40;1.30;;;;;;;;;;5038007;28;20263;-62
2023/04/27 03:33:00;;;;;;;1.35;1.25;;;;;;;;;;5037665;28;20198;-62
2023/04/27 03:35:28;;;;;;;1.20;1.10;;;;;;;;;;5037530;28;20213;-62
2023/04/27 03:37:56;;;;;;;1.38;1.27;;;;;;;;;;5038148;28;20502;-62
2023/04/27 03:40:23;;;;;;;1.40;1.30;;;;;;;;;;5037755;28;20205;-62
2023/04/27 03:42:53;;;;;;;1.30;1.20;;;;;;;;;;5037337;28;20714;-62
2023/04/27 03:45:21;;;;;;;1.38;1.27;;;;;;;;;;5037981;28;20213;-62
2023/04/27 03:47:49;;;;;;;1.45;1.27;;;;;;;;;;5037179;28;20216;-62
2023/04/27 03:50:17;;;;;;;1.23;1.13;;;;;;;;;;5037990;28;20292;-62
2023/04/27 03:52:44;;;;;;;1.30;1.20;;;;;;;;;;5037390;28;20202;-62
2023/04/27 03:55:12;;;;;;;1.25;1.15;;;;;;;;;;5037537;28;20236;-62
2023/04/27 03:57:40;;;;;;;1.30;1.20;;;;;;;;;;5037129;28;20336;-62
2023/04/27 04:00:11;;;;;;;1.55;1.45;;;;;;;;;;5036691;28;20428;-62
2023/04/27 04:02:39;;;;;;;1.33;1.23;;;;;;;;;;5036860;28;20315;-62
2023/04/27 04:05:07;;;;;;;1.20;1.10;;;;;;;;;;5037200;28;20213;-62
2023/04/27 04:07:35;;;;;;;1.27;1.17;;;;;;;;;;5036992;28;20304;-62
2023/04/27 04:10:03;;;;;;;1.40;1.30;;;;;;;;;;5037008;28;20216;-62
2023/04/27 04:12:30;;;;;;;1.40;1.30;;;;;;;;;;5036610;28;20487;-62
2023/04/27 04:14:58;;;;;;;1.60;1.50;;;;;;;;;;5036402;28;20205;-62
2023/04/27 04:17:27;;;;;;;1.42;1.33;;;;;;;;;;5036543;28;20213;-62
2023/04/27 04:19:54;;;;;;;1.25;1.15;;;;;;;;;;5036536;28;20217;-62
2023/04/27 04:22:22;;;;;;;1.40;1.30;;;;;;;;;;5036675;28;20229;-62
2023/04/27 04:24:50;;;;;;;1.63;1.52;;;;;;;;;;5036573;28;20485;-62
2023/04/27 04:27:17;;;;;;;1.38;1.27;;;;;;;;;;5036714;28;20300;-62
2023/04/27 04:29:45;;;;;;;1.30;1.20;;;;;;;;;;5036697;28;20202;-62
2023/04/27 04:32:16;;;;;;;1.40;1.30;;;;;;;;;;5036351;28;20263;-62
2023/04/27 04:34:50;;;;;;;1.30;1.20;;;;;;;;;;5035615;28;20217;-62
2023/04/27 04:37:18;;;;;;;1.27;1.17;;;;;;;;;;5036679;28;20209;-62
2023/04/27 04:39:46;;;;;;;1.40;1.30;;;;;;;;;;5036103;28;20271;-62
2023/04/27 04:42:13;;;;;;;1.20;1.10;;;;;;;;;;5036171;28;20335;-62
2023/04/27 04:44:41;;;;;;;1.23;1.13;;;;;;;;;;5035606;28;20213;-62
2023/04/27 04:47:09;;;;;;;1.20;1.10;;;;;;;;;;5035672;28;20264;-62
2023/04/27 04:49:36;;;;;;;1.42;1.33;;;;;;;;;;5035515;28;20264;-62
2023/04/27 04:52:05;;;;;;;1.20;1.10;;;;;;;;;;5035216;28;20201;-62
2023/04/27 04:54:33;;;;;;;1.20;1.10;;;;;;;;;;5035221;28;20495;-62
2023/04/27 04:57:01;;;;;;;1.30;1.20;;;;;;;;;;5035244;28;20206;-62
2023/04/27 04:59:28;;;;;;;1.38;1.27;;;;;;;;;;5034769;28;20237;-62
2023/04/27 05:01:56;;;;;;;1.20;1.20;;;;;;;;;;5034755;28;20500;-63
2023/04/27 05:04:23;;;;;;;1.30;1.20;;;;;;;;;;5034114;28;20209;-63
2023/04/27 05:06:51;;;;;;;1.40;1.30;;;;;;;;;;5033922;28;20217;-62
2023/04/27 05:09:20;;;;;;;1.40;1.30;;;;;;;;;;5034155;28;20297;-62
2023/04/27 05:11:48;;;;;;;1.27;1.17;;;;;;;;;;5033798;28;20217;-62
2023/04/27 05:14:16;;;;;;;1.17;1.17;;;;;;;;;;5033698;28;20280;-62
2023/04/27 05:16:43;;;;;;;1.33;1.23;;;;;;;;;;5034201;28;20202;-62
2023/04/27 05:19:11;;;;;;;2.35;1.30;;;;;;;;;;5033805;28;20213;-62
2023/04/27 05:21:39;;;;;;;1.58;1.35;;;;;;;;;;5033127;28;20676;-62
2023/04/27 05:24:06;;;;;;;2.22;1.70;;;;;;;;;;5033445;28;20204;-62
2023/04/27 05:26:35;;;;;;;1.38;1.27;;;;;;;;;;5033465;28;20256;-62
2023/04/27 05:29:03;;;;;;;1.50;1.40;;;;;;;;;;5033961;28;20213;-62
2023/04/27 05:31:30;;;;;;;1.40;1.30;;;;;;;;;;5033775;28;20205;-63
2023/04/27 05:33:58;;;;;;;1.40;1.30;;;;;;;;;;5033991;28;20210;-62
2023/04/27 05:36:27;;;;;;;1.20;1.10;;;;;;;;;;5034105;28;20551;-62
2023/04/27 05:38:54;;;;;;;1.23;1.20;;;;;;;;;;5037944;28;20198;-62
2023/04/27 05:41:22;;;;;;;1.75;1.30;;;;;;;;;;5037057;28;20233;-62
2023/04/27 05:43:52;;;;;;;1.15;1.15;;;;;;;;;;5037270;28;20322;-62
2023/04/27 05:46:19;;;;;;;1.23;1.17;;;;;;;;;;5035905;28;20213;-62
2023/04/27 05:48:47;;;;;;;1.30;1.20;;;;;;;;;;5037481;28;20205;-62
2023/04/27 05:51:15;;;;;;;1.48;1.38;;;;;;;;;;5037128;28;20268;-62
2023/04/27 05:53:43;;;;;;;2.00;1.45;;;;;;;;;;5036891;28;20198;-62
2023/04/27 05:56:11;;;;;;;1.48;1.25;;;;;;;;;;5036623;28;20745;-62
2023/04/27 05:58:39;;;;;;;2.85;1.35;;;;;;;;;;5037215;28;20233;-62
2023/04/27 06:01:08;;;;;;;1.40;1.30;;;;;;;;;;5036406;28;20233;-62
2023/04/27 06:03:35;;;;;;;1.60;1.50;;;;;;;;;;5036526;28;20221;-62
2023/04/27 06:06:03;;;;;;;1.50;1.40;;;;;;;;;;5036312;28;20206;-62
2023/04/27 06:08:30;;;;;;;1.40;1.30;;;;;;;;;;5036687;28;20202;-62
2023/04/27 06:10:58;;;;;;;1.60;1.50;;;;;;;;;;5036669;28;20202;-62
2023/04/27 06:13:26;;;;;;;2.22;1.45;;;;;;;;;;5036652;28;20213;-62
2023/04/27 06:15:53;;;;;;;1.50;1.40;;;;;;;;;;5036486;28;20668;-62
2023/04/27 06:18:22;;;;;;;1.45;1.35;;;;;;;;;;5037107;28;20286;-62
2023/04/27 06:20:50;;;;;;;1.60;1.50;;;;;;;;;;5036776;28;20205;-62
2023/04/27 06:23:17;;;;;;;1.92;1.40;;;;;;;;;;5036606;28;20261;-62
2023/04/27 06:25:45;;;;;;;1.50;1.40;;;;;;;;;;5037276;28;20590;-62
2023/04/27 06:28:12;;;;;;;1.88;1.48;;;;;;;;;;5036775;28;20656;-62
2023/04/27 06:30:40;;;;;;;1.35;1.02;;;;;;;;;;5037085;28;20264;-62
2023/04/27 06:33:07;;;;;;;1.40;1.30;;;;;;;;;;5036704;28;20202;-62
2023/04/27 06:35:36;;;;;;;1.10;1.00;;;;;;;;;;5036285;28;20202;-62
2023/04/27 06:38:04;;;;;;;1.42;1.30;;;;;;;;;;5036315;28;20213;-62
2023/04/27 06:40:31;;;;;;;1.40;1.25;;;;;;;;;;5036380;28;20589;-62
2023/04/27 06:42:59;;;;;;;1.50;1.40;;;;;;;;;;5036416;28;20307;-62
2023/04/27 06:45:26;;;;;;;1.63;1.40;;;;;;;;;;5037013;28;20371;-62
2023/04/27 06:47:55;;;;;;;2.22;1.42;;;;;;;;;;5035273;28;20256;-62
2023/04/27 06:50:22;;;;;;;1.60;1.40;;;;;;;;;;5035766;28;20205;-62
2023/04/27 06:52:51;;;;;;;1.45;1.35;;;;;;;;;;5036398;28;20209;-62
2023/04/27 06:55:19;;;;;;;1.40;1.30;;;;;;;;;;5036027;28;20271;-62
2023/04/27 06:57:46;;;;;;;1.25;1.15;;;;;;;;;;5036177;28;20605;-62
2023/04/27 07:00:14;;;;;;;1.48;1.38;;;;;;;;;;5036269;28;20237;-62
2023/04/27 07:02:42;;;;;;;1.40;1.30;;;;;;;;;;5036419;28;20229;-62
2023/04/27 07:05:10;;;;;;;1.45;1.33;;;;;;;;;;5036243;28;20210;-62
2023/04/27 07:07:38;;;;;;;1.85;1.45;;;;;;;;;;5035623;28;20217;-62
2023/04/27 07:10:08;;;;;;;2.97;1.30;;;;;;;;;;5036711;28;20233;-62
2023/04/27 07:12:35;;;;;;;1.50;1.40;;;;;;;;;;5035558;28;20209;-62
2023/04/27 07:15:05;;;;;;;1.98;1.70;;;;;;;;;;5035000;28;20271;-62
2023/04/27 07:17:32;;;;;;;1.77;1.50;;;;;;;;;;5035969;28;20213;-62
2023/04/27 07:20:00;;;;;;;1.30;1.20;;;;;;;;;;5035927;28;20237;-62
2023/04/27 07:22:27;;;;;;;1.45;1.35;;;;;;;;;;5035736;28;20226;-62
2023/04/27 07:24:55;;;;;;;1.20;1.20;;;;;;;;;;5035969;28;20228;-62
2023/04/27 07:27:25;;;;;;;1.67;1.52;;;;;;;;;;5035267;28;20206;-62
2023/04/27 07:29:53;;;;;;;1.40;1.30;;;;;;;;;;5035402;28;20285;-62
2023/04/27 07:32:21;;;;;;;1.45;1.35;;;;;;;;;;5035890;28;20582;-62
2023/04/27 07:34:49;;;;;;;1.20;1.10;;;;;;;;;;5034502;28;20197;-62
2023/04/27 07:37:17;;;;;;;1.40;1.30;;;;;;;;;;5034700;28;20545;-62
2023/04/27 07:39:45;;;;;;;1.30;1.20;;;;;;;;;;5035342;28;20210;-62
2023/04/27 07:42:14;;;;;;;1.75;1.50;;;;;;;;;;5034461;28;20563;-62
2023/04/27 07:44:43;;;;;;;1.77;1.60;;;;;;;;;;5035684;28;20205;-62
2023/04/27 07:47:12;;;;;;;1.73;1.30;;;;;;;;;;5035262;28;20492;-62
2023/04/27 07:49:39;;;;;;;1.63;1.30;;;;;;;;;;5035093;28;20205;-62
2023/04/27 07:52:07;;;;;;;1.60;1.50;;;;;;;;;;5035083;28;20483;-62
2023/04/27 07:54:36;;;;;;;1.50;1.40;;;;;;;;;;5035111;28;20208;-62
2023/04/27 07:57:09;;;;;;;1.40;1.30;;;;;;;;;;5035163;28;20205;-62
2023/04/27 07:59:36;;;;;;;1.30;1.20;;;;;;;;;;5034584;28;20307;-62
2023/04/27 08:02:05;;;;;;;1.40;1.30;;;;;;;;;;5034972;28;20217;-62
2023/04/27 08:04:33;;;;;;;1.50;1.40;;;;;;;;;;5035184;28;20633;-62
2023/04/27 08:07:00;;;;;;;1.50;1.30;;;;;;;;;;5034891;28;20213;-62
2023/04/27 08:09:28;;;;;;;1.40;1.30;;;;;;;;;;5034807;28;20749;-62
2023/04/27 08:11:55;;;;;;;1.40;1.30;;;;;;;;;;5034419;28;20287;-62
2023/04/27 08:14:23;;;;;;;1.85;1.38;;;;;;;;;;5034316;28;20460;-62
2023/04/27 08:16:51;;;;;;;3.13;1.60;;;;;;;;;;5034188;28;20628;-62
2023/04/27 08:19:20;;;;;;;1.90;1.40;;;;;;;;;;5034299;28;20221;-62
2023/04/27 08:21:48;;;;;;;5.15;1.40;;;;;;;;;;5034178;28;20212;-62
2023/04/27 08:24:15;;;;;;;3.45;1.50;;;;;;;;;;5034744;28;20514;-62
2023/04/27 08:26:43;;;;;;;1.75;1.40;;;;;;;;;;5034195;28;20270;-62
2023/04/27 08:29:10;;;;;;;1.90;1.40;;;;;;;;;;5034366;28;20225;-62
2023/04/27 08:31:38;;;;;;;3.05;1.65;;;;;;;;;;5034933;28;20228;-62
2023/04/27 08:34:06;;;;;;;1.85;1.30;;;;;;;;;;5034333;28;20296;-62
2023/04/27 08:36:35;;;;;;;2.65;1.60;;;;;;;;;;5034508;28;20228;-62
2023/04/27 08:39:04;;;;;;;2.97;1.50;;;;;;;;;;5034969;28;20640;-62
2023/04/27 08:41:32;;;;;;;3.33;1.55;;;;;;;;;;5034857;28;20268;-62
2023/04/27 08:44:00;;;;;;;3.78;1.70;;;;;;;;;;5034746;28;20261;-62
2023/04/27 08:46:27;;;;;;;3.10;1.55;;;;;;;;;;5034432;28;20205;-62
2023/04/27 08:48:55;;;;;;;2.35;1.40;;;;;;;;;;5033974;28;20213;-62
2023/04/27 08:51:25;;;;;;;1.95;1.33;;;;;;;;;;5034070;28;20213;-62
2023/04/27 08:53:55;;;;;;;3.22;1.42;;;;;;;;;;5034735;28;20249;-62
2023/04/27 08:56:23;;;;;;;2.00;1.55;;;;;;;;;;5034083;28;20212;-62
2023/04/27 08:58:51;;;;;;;1.75;1.55;;;;;;;;;;5033600;28;20318;-62
2023/04/27 09:01:19;;;;;;;1.65;1.35;;;;;;;;;;5033760;28;20634;-62
2023/04/27 09:03:47;;;;;;;2.03;1.40;;;;;;;;;;5033417;28;20574;-62
2023/04/27 09:06:15;;;;;;;2.05;1.50;;;;;;;;;;5033018;28;20660;-62
2023/04/27 09:08:43;;;;;;;1.98;1.50;;;;;;;;;;5033955;28;20582;-62
2023/04/27 09:11:12;;;;;;;2.38;1.45;;;;;;;;;;5035300;28;20217;-62
2023/04/27 09:13:41;;;;;;;2.10;1.60;;;;;;;;;;5038474;28;20585;-62
2023/04/27 09:16:09;;;;;;;2.33;1.40;;;;;;;;;;5038152;28;20229;-62
2023/04/27 09:18:37;;;;;;;1.88;1.10;;;;;;;;;;5037715;28;20737;-62
2023/04/27 09:21:05;;;;;;;3.83;1.73;;;;;;;;;;5037618;28;20209;-62
2023/04/27 09:23:34;;;;;;;2.75;1.70;;;;;;;;;;5036916;28;20305;-62
2023/04/27 09:26:02;;;;;;;3.03;1.50;;;;;;;;;;5036871;28;20205;-62
2023/04/27 09:28:33;;;;;;;4.45;1.88;;;;;;;;;;5036854;28;20205;-62
2023/04/27 09:31:01;;;;;;;4.38;1.67;;;;;;;;;;5037260;28;20206;-63
2023/04/27 09:33:30;;;;;;;4.00;1.85;;;;;;;;;;5037639;28;20216;-63
2023/04/27 09:35:59;;;;;;;3.40;1.60;;;;;;;;;;5036209;28;20198;-63
2023/04/27 09:38:27;;;;;;;3.80;1.73;;;;;;;;;;5035706;28;20206;-63
2023/04/27 09:40:55;;;;;;;3.67;1.60;;;;;;;;;;5036165;28;20205;-63
2023/04/27 09:43:23;;;;;;;4.45;1.92;;;;;;;;;;5036598;28;20221;-63
2023/04/27 09:45:52;;;;;;;4.80;1.77;;;;;;;;;;5037304;28;20244;-63
2023/04/27 09:48:21;;;;;;;2.67;1.65;;;;;;;;;;5037302;28;20205;-63
2023/04/27 09:50:49;;;;;;;3.40;1.90;;;;;;;;;;5036869;28;20213;-63
2023/04/27 09:53:19;;;;;;;4.78;1.60;;;;;;;;;;5036131;28;20209;-63
2023/04/27 09:55:49;;;;;;;3.97;1.77;;;;;;;;;;5036512;28;20272;-63
2023/04/27 09:58:23;;;;;;;5.88;2.00;;;;;;;;;;5036705;28;20209;-63
2023/04/27 10:00:58;;;;;;;4.05;1.70;;;;;;;;;;5036909;28;20244;-63
2023/04/27 10:03:31;;;;;;;5.28;2.47;;;;;;;;;;5036054;28;20225;-63
2023/04/27 10:06:37;;;;;;;2.47;1.67;;;;;;;;;;5035715;28;20300;-63
2023/04/27 10:09:05;;;;;;;4.22;1.80;;;;;;;;;;5036108;28;20205;-63
2023/04/27 10:11:40;;;;;;;7.95;2.03;;;;;;;;;;5035992;28;20206;-63
2023/04/27 10:14:08;;;;;;;5.65;2.15;;;;;;;;;;5035286;28;20228;-63
2023/04/27 10:16:45;;;;;;;5.60;2.20;;;;;;;;;;5035114;28;20217;-63
2023/04/27 10:19:13;;;;;;;5.05;1.95;;;;;;;;;;5034841;28;20324;-63
2023/04/27 10:21:51;;;;;;;5.32;2.03;;;;;;;;;;5036066;28;20202;-63
2023/04/27 10:24:19;;;;;;;4.25;2.20;;;;;;;;;;5035603;28;20264;-63
2023/04/27 10:26:47;;;;;;;3.90;2.15;;;;;;;;;;5035842;28;20508;-63
2023/04/27 10:29:17;;;;;;;4.15;1.70;;;;;;;;;;5035881;28;20228;-63
2023/04/27 10:31:48;;;;;;;5.50;1.80;;;;;;;;;;5035181;28;20209;-63
2023/04/27 10:34:17;;;;;;;4.35;2.13;;;;;;;;;;5034822;28;20241;-63
2023/04/27 10:36:45;;;;;;;6.05;2.00;;;;;;;;;;5034709;28;20208;-63
2023/04/27 10:39:16;;;;;;;5.68;2.50;;;;;;;;;;5034686;28;20241;-63
2023/04/27 10:41:54;;;;;;;4.90;2.08;;;;;;;;;;5033069;28;20225;-63
2023/04/27 10:44:27;;;;;;;4.68;2.20;;;;;;;;;;5034465;28;20229;-63
2023/04/27 10:46:58;;;;;;;6.15;1.98;;;;;;;;;;5034846;28;20272;-63
2023/04/27 10:49:28;;;;;;;5.35;1.90;;;;;;;;;;5036181;28;20528;-63
2023/04/27 10:51:57;;;;;;;5.45;2.08;;;;;;;;;;5035398;28;20205;-63
2023/04/27 10:54:26;;;;;;;5.00;2.03;;;;;;;;;;5035809;28;20728;-63
2023/04/27 10:56:54;;;;;;;6.38;1.80;;;;;;;;;;5035586;28;20205;-63
2023/04/27 10:59:21;;;;;;;4.63;2.00;;;;;;;;;;5035169;28;20233;-63
2023/04/27 11:01:50;;;;;;;4.78;1.98;;;;;;;;;;5034713;28;20217;-63
2023/04/27 11:04:19;;;;;;;5.32;2.00;;;;;;;;;;5033839;28;20225;-63
2023/04/27 11:06:46;;;;;;;4.20;2.20;;;;;;;;;;5033598;28;20202;-63
2023/04/27 11:09:15;;;;;;;3.42;1.80;;;;;;;;;;5034927;28;20816;-63
2023/04/27 11:11:46;;;;;;;4.15;1.70;;;;;;;;;;5034717;28;20209;-63
2023/04/27 11:14:16;;;;;;;5.63;2.13;;;;;;;;;;5034412;28;20264;-63
2023/04/27 11:16:47;;;;;;;4.25;1.80;;;;;;;;;;5034336;28;20233;-63
2023/04/27 11:19:15;;;;;;;4.15;1.90;;;;;;;;;;5033776;28;20206;-63
2023/04/27 11:21:44;;;;;;;3.67;2.00;;;;;;;;;;5033852;28;20304;-62
2023/04/27 11:24:12;;;;;;;4.18;1.98;;;;;;;;;;5033647;28;20237;-62
2023/04/27 11:26:39;;;;;;;5.68;1.90;;;;;;;;;;5034366;28;20267;-62
2023/04/27 11:29:11;;;;;;;5.43;1.92;;;;;;;;;;5034094;28;20267;-62
2023/04/27 11:31:42;;;;;;;4.95;1.70;;;;;;;;;;5033979;28;20214;-62
2023/04/27 11:34:10;;;;;;;5.03;1.80;;;;;;;;;;5033560;28;20241;-63
2023/04/27 11:36:38;;;;;;;3.33;1.80;;;;;;;;;;5035155;28;20201;-63
2023/04/27 11:39:08;;;;;;;3.42;1.63;;;;;;;;;;5033320;28;20560;-63
2023/04/27 11:41:36;;;;;;;4.05;1.67;;;;;;;;;;5033759;28;20198;-63
2023/04/27 11:44:07;;;;;;;2.38;1.70;;;;;;;;;;5034392;28;20312;-63
2023/04/27 11:46:36;;;;;;;3.22;1.70;;;;;;;;;;5034561;28;20336;-63
2023/04/27 11:49:04;;;;;;;3.25;1.67;;;;;;;;;;5033440;28;20206;-63
2023/04/27 11:51:32;;;;;;;2.67;1.58;;;;;;;;;;5033917;28;20202;-63
2023/04/27 11:54:03;;;;;;;2.38;1.50;;;;;;;;;;5033344;28;20550;-63
2023/04/27 11:56:38;;;;;;;2.78;1.88;;;;;;;;;;5033081;28;20710;-63
2023/04/27 11:59:06;;;;;;;3.20;1.48;;;;;;;;;;5032748;28;20236;-63
2023/04/27 12:01:34;;;;;;;4.03;2.03;;;;;;;;;;5034825;28;20578;-63
2023/04/27 12:04:02;;;;;;;3.00;1.52;;;;;;;;;;5033498;28;20296;-63
2023/04/27 12:06:30;;;;;;;2.15;1.73;;;;;;;;;;5033497;28;20296;-63
2023/04/27 12:08:57;;;;;;;2.50;1.52;;;;;;;;;;5033531;28;20205;-63
2023/04/27 12:11:26;;;;;;;2.53;1.40;;;;;;;;;;5034102;28;20216;-63
2023/04/27 12:13:56;;;;;;;3.03;1.65;;;;;;;;;;5033738;28;20309;-63
2023/04/27 12:16:23;;;;;;;2.13;1.40;;;;;;;;;;5033831;28;20552;-63
2023/04/27 12:18:51;;;;;;;1.80;1.58;;;;;;;;;;5034034;28;20209;-63
2023/04/27 12:21:19;;;;;;;2.20;1.48;;;;;;;;;;5033880;28;20256;-63
2023/04/27 12:23:46;;;;;;;1.65;1.33;;;;;;;;;;5034263;28;20232;-63
2023/04/27 12:26:14;;;;;;;3.63;1.50;;;;;;;;;;5033593;28;20231;-63
2023/04/27 12:28:42;;;;;;;2.15;1.40;;;;;;;;;;5033410;28;20496;-63
2023/04/27 12:31:15;;;;;;;3.03;1.70;;;;;;;;;;5033068;28;20198;-63
2023/04/27 12:33:42;;;;;;;2.33;1.60;;;;;;;;;;5032402;28;20739;-63
2023/04/27 12:36:10;;;;;;;1.60;1.50;;;;;;;;;;5033404;28;20214;-63
2023/04/27 12:38:38;;;;;;;2.25;1.42;;;;;;;;;;5032803;28;20213;-63
2023/04/27 12:41:05;;;;;;;2.38;1.40;;;;;;;;;;5032598;28;20209;-63
2023/04/27 12:43:34;;;;;;;2.22;1.70;;;;;;;;;;5033817;28;20213;-63
2023/04/27 12:46:02;;;;;;;2.00;1.58;;;;;;;;;;5036016;28;20225;-63
2023/04/27 12:48:32;;;;;;;1.67;1.58;;;;;;;;;;5039848;28;20205;-63
2023/04/27 12:50:59;;;;;;;24.42;5.57;;;;;;;;;;5038511;28;20311;-63
2023/04/27 12:53:28;;;;;;;21.85;6.18;;;;;;;;;;5038985;28;20507;-63
2023/04/27 12:55:56;;;;;;;23.25;5.43;;;;;;;;;;5040064;28;20253;-63
2023/04/27 12:58:23;;;;;;;32.05;8.48;;;;;;;;;;5039115;28;20267;-63
2023/04/27 13:00:51;;;;;;;21.20;5.47;;;;;;;;;;5039191;28;20241;-63
2023/04/27 13:03:18;;;;;;;23.02;5.55;;;;;;;;;;5039849;28;20779;-63
2023/04/27 13:05:47;;;;;;;23.75;5.88;;;;;;;;;;5040248;28;20232;-63
2023/04/27 13:08:15;;;;;;;12.15;3.67;;;;;;;;;;5040577;28;20211;-63
2023/04/27 13:10:43;;;;;;;13.23;4.15;;;;;;;;;;5039445;28;20209;-63
2023/04/27 13:13:10;;;;;;;13.73;4.65;;;;;;;;;;5039217;28;20267;-63
2023/04/27 13:15:39;;;;;;;17.58;5.72;;;;;;;;;;5039145;28;20274;-63
2023/04/27 13:18:07;;;;;;;19.58;5.72;;;;;;;;;;5039070;28;20664;-63
2023/04/27 13:20:35;;;;;;;14.15;5.38;;;;;;;;;;5039087;28;20206;-63
2023/04/27 13:23:05;;;;;;;14.98;5.70;;;;;;;;;;5039743;28;20240;-63
2023/04/27 13:25:33;;;;;;;14.88;5.25;;;;;;;;;;5039376;28;20695;-63
2023/04/27 13:28:00;;;;;;;15.02;5.13;;;;;;;;;;5040150;28;20300;-63
2023/04/27 13:30:28;;;;;;;14.23;5.18;;;;;;;;;;5039149;28;20803;-63
2023/04/27 13:32:55;;;;;;;17.15;4.97;;;;;;;;;;5038150;28;20717;-63
2023/04/27 13:35:23;;;;;;;13.02;3.90;;;;;;;;;;5039398;28;20205;-63
2023/04/27 13:37:52;;;;;;;14.48;4.22;;;;;;;;;;5039745;28;20400;-63
2023/04/27 13:40:21;;;;;;;16.30;5.13;;;;;;;;;;5039372;28;20209;-63
2023/04/27 13:42:49;;;;;;;14.60;5.00;;;;;;;;;;5039564;28;20212;-63
2023/04/27 13:45:17;;;;;;;13.38;5.07;;;;;;;;;;5039888;28;20255;-63
2023/04/27 13:47:45;;;;;;;13.25;4.95;;;;;;;;;;5039130;28;20206;-63
2023/04/27 13:50:13;;;;;;;11.20;4.40;;;;;;;;;;5038793;28;20590;-63
2023/04/27 13:52:41;;;;;;;10.40;4.38;;;;;;;;;;5039167;28;20213;-63
2023/04/27 13:55:09;;;;;;;11.60;4.43;;;;;;;;;;5039446;28;20202;-63
2023/04/27 13:57:38;;;;;;;11.48;4.18;;;;;;;;;;5036457;28;20879;-63
2023/04/27 14:00:10;;;;;;;11.68;4.50;;;;;;;;;;5035714;28;20781;-63
2023/04/27 14:02:38;;;;;;;14.82;5.03;;;;;;;;;;5034353;28;20291;-63
2023/04/27 14:05:06;;;;;;;10.40;4.63;;;;;;;;;;5036263;28;20295;-63
2023/04/27 14:07:34;;;;;;;9.55;4.35;;;;;;;;;;5035600;28;20590;-63
2023/04/27 14:10:02;;;;;;;12.00;4.55;;;;;;;;;;5035908;28;20263;-63
2023/04/27 14:12:31;;;;;;;11.30;4.80;;;;;;;;;;5035855;28;20206;-63
2023/04/27 14:15:00;;;;;;;9.43;4.10;;;;;;;;;;5035608;28;20201;-63
2023/04/27 14:17:27;;;;;;;14.73;4.35;;;;;;;;;;5035027;28;20213;-63
2023/04/27 14:19:55;;;;;;;9.65;4.25;;;;;;;;;;5035504;28;20213;-63
2023/04/27 14:22:23;;;;;;;11.60;4.43;;;;;;;;;;5034542;28;20775;-63
2023/04/27 14:24:50;;;;;;;12.15;4.43;;;;;;;;;;5034832;28;20218;-63
2023/04/27 14:27:18;;;;;;;11.23;3.83;;;;;;;;;;5034932;28;20212;-63
2023/04/27 14:29:46;;;;;;;11.52;4.60;;;;;;;;;;5036380;28;20273;-63
2023/04/27 14:32:15;;;;;;;10.45;4.30;;;;;;;;;;5034788;28;20499;-63
2023/04/27 14:34:42;;;;;;;11.68;4.03;;;;;;;;;;5035110;28;20201;-63
2023/04/27 14:37:10;;;;;;;7.30;4.05;;;;;;;;;;5036072;28;20205;-63
2023/04/27 14:39:38;;;;;;;10.38;4.18;;;;;;;;;;5036024;28;20216;-63
2023/04/27 14:42:05;;;;;;;7.82;3.47;;;;;;;;;;5036160;28;20209;-63
2023/04/27 14:44:35;;;;;;;11.35;4.20;;;;;;;;;;5035230;28;20213;-63
2023/04/27 14:47:02;;;;;;;10.30;3.75;;;;;;;;;;5034680;28;20209;-63